createdAt,value
2022-12-19T00:01:34.782Z,64.30
2022-12-19T00:04:06.155Z,64.55
2022-12-19T00:06:36.775Z,63.50
2022-12-19T00:09:03.854Z,62.92
2022-12-19T00:11:30.613Z,66.13
2022-12-19T00:13:58.031Z,66.28
2022-12-19T00:16:27.514Z,63.58
2022-12-19T00:18:55.782Z,60.58
2022-12-19T00:21:27.495Z,64.45
2022-12-19T00:23:54.284Z,62.95
2022-12-19T00:26:28.857Z,62.88
2022-12-19T00:29:01.184Z,66.93
2022-12-19T00:31:30.052Z,63.75
2022-12-19T00:33:57.504Z,64.82
2022-12-19T00:36:26.771Z,64.30
2022-12-19T00:38:56.011Z,65.35
2022-12-19T00:41:25.930Z,69.30
2022-12-19T00:44:00.602Z,71.47
2022-12-19T00:46:28.687Z,66.65
2022-12-19T00:48:55.668Z,60.58
2022-12-19T00:51:25.830Z,71.05
2022-12-19T00:53:54.857Z,67.07
2022-12-19T00:56:24.359Z,62.22
2022-12-19T00:58:52.224Z,68.07
2022-12-19T01:01:20.608Z,66.63
2022-12-19T01:04:11.290Z,70.07
2022-12-19T01:06:34.807Z,68.18
2022-12-19T01:09:01.701Z,65.32
2022-12-19T01:11:47.033Z,66.93
2022-12-19T01:14:20.801Z,65.95
2022-12-19T01:16:49.838Z,69.72
2022-12-19T01:19:16.509Z,66.00
2022-12-19T01:21:43.225Z,66.90
2022-12-19T01:24:10.936Z,71.70
2022-12-19T01:26:37.620Z,68.40
2022-12-19T01:29:05.212Z,65.83
2022-12-19T01:31:33.138Z,59.63
2022-12-19T01:34:00.737Z,61.83
2022-12-19T01:36:28.296Z,64.93
2022-12-19T01:38:58.279Z,66.43
2022-12-19T01:41:25.337Z,69.32
2022-12-19T01:43:59.932Z,61.47
2022-12-19T01:46:39.935Z,61.23
2022-12-19T01:49:14.425Z,62.70
2022-12-19T01:51:45.489Z,63.90
2022-12-19T01:56:48.350Z,62.40
2022-12-19T01:59:22.766Z,67.18
2022-12-19T02:01:55.141Z,59.40
2022-12-19T02:04:23.503Z,58.47
2022-12-19T02:06:51.812Z,65.30
2022-12-19T02:09:18.946Z,64.38
2022-12-19T02:11:48.669Z,63.53
2022-12-19T02:14:15.509Z,64.83
2022-12-19T02:16:54.666Z,57.03
2022-12-19T02:20:04.917Z,66.77
2022-12-19T02:23:18.456Z,61.03
2022-12-19T02:26:13.123Z,54.40
2022-12-19T02:29:13.526Z,58.47
2022-12-19T02:31:48.359Z,57.40
2022-12-19T02:34:53.454Z,62.55
2022-12-19T02:37:33.736Z,61.23
2022-12-19T02:40:09.275Z,58.95
2022-12-19T02:42:39.764Z,62.60
2022-12-19T02:45:09.819Z,62.50
2022-12-19T02:47:37.573Z,58.15
2022-12-19T02:50:05.396Z,58.80
2022-12-19T02:52:31.958Z,58.58
2022-12-19T02:55:12.371Z,57.47
2022-12-19T02:58:12.444Z,60.63
2022-12-19T03:00:54.561Z,56.83
2022-12-19T03:03:36.109Z,63.10
2022-12-19T03:06:22.632Z,54.70
2022-12-19T03:09:11.272Z,56.90
2022-12-19T03:11:40.819Z,57.10
2022-12-19T03:14:12.504Z,61.43
2022-12-19T03:16:39.253Z,59.93
2022-12-19T03:19:10.472Z,57.77
2022-12-19T03:21:55.137Z,57.17
2022-12-19T03:24:22.070Z,59.60
2022-12-19T03:27:03.213Z,57.17
2022-12-19T03:29:34.066Z,59.17
2022-12-19T03:32:04.303Z,62.47
2022-12-19T03:34:40.287Z,60.03
2022-12-19T03:37:14.721Z,59.90
2022-12-19T03:39:43.026Z,57.03
2022-12-19T03:42:30.251Z,56.23
2022-12-19T03:45:00.357Z,53.50
2022-12-19T03:47:33.622Z,56.37
2022-12-19T03:50:00.437Z,60.57
2022-12-19T03:52:34.176Z,58.37
2022-12-19T03:55:19.362Z,63.40
2022-12-19T03:58:27.958Z,56.20
2022-12-19T04:00:55.514Z,63.10
2022-12-19T04:03:23.931Z,68.07
2022-12-19T04:05:51.622Z,64.40
2022-12-19T04:08:18.791Z,62.57
2022-12-19T04:10:52.315Z,55.33
2022-12-19T04:13:27.905Z,58.73
2022-12-19T04:16:20.843Z,62.67
2022-12-19T04:18:55.707Z,64.73
2022-12-19T04:21:31.736Z,69.83
2022-12-19T04:24:05.973Z,59.10
2022-12-19T04:26:36.453Z,57.87
2022-12-19T04:29:06.189Z,56.00
2022-12-19T04:31:33.055Z,54.37
2022-12-19T04:33:59.768Z,58.87
2022-12-19T04:36:26.710Z,60.77
2022-12-19T04:38:53.556Z,54.13
2022-12-19T04:41:20.361Z,57.93
2022-12-19T04:43:47.035Z,52.70
2022-12-19T04:46:13.797Z,54.40
2022-12-19T04:48:40.473Z,52.37
2022-12-19T04:51:07.194Z,55.30
2022-12-19T04:53:34.167Z,54.97
2022-12-19T04:56:05.422Z,54.37
2022-12-19T04:58:32.300Z,61.43
2022-12-19T05:01:03.476Z,62.03
2022-12-19T05:03:30.376Z,57.13
2022-12-19T05:06:08.331Z,54.43
2022-12-19T05:08:36.731Z,65.40
2022-12-19T05:11:05.672Z,64.90
2022-12-19T05:13:32.910Z,62.13
2022-12-19T05:16:01.452Z,64.33
2022-12-19T05:18:28.804Z,56.87
2022-12-19T05:20:55.560Z,64.13
2022-12-19T05:23:22.641Z,65.57
2022-12-19T05:25:49.781Z,63.07
2022-12-19T05:28:17.092Z,78.03
2022-12-19T05:30:49.176Z,75.17
2022-12-19T05:33:18.939Z,68.70
2022-12-19T05:35:45.569Z,67.10
2022-12-19T05:38:12.191Z,76.13
2022-12-19T05:40:38.890Z,65.00
2022-12-19T05:43:05.537Z,66.83
2022-12-19T05:45:32.240Z,80.10
2022-12-19T05:48:01.483Z,74.57
2022-12-19T05:50:28.568Z,66.47
2022-12-19T05:52:55.564Z,70.23
2022-12-19T05:55:22.403Z,63.63
2022-12-19T05:57:49.160Z,61.60
2022-12-19T06:00:16.471Z,67.37
2022-12-19T06:02:45.998Z,61.63
2022-12-19T06:05:12.765Z,73.73
2022-12-19T06:07:39.455Z,72.27
2022-12-19T06:10:06.866Z,67.67
2022-12-19T06:12:33.511Z,60.47
2022-12-19T06:15:00.183Z,65.80
2022-12-19T06:17:26.833Z,64.53
2022-12-19T06:19:53.496Z,69.23
2022-12-19T06:22:20.135Z,64.60
2022-12-19T06:24:46.735Z,71.47
2022-12-19T06:27:13.455Z,69.37
2022-12-19T06:29:40.250Z,62.70
2022-12-19T06:32:06.999Z,69.43
2022-12-19T06:37:22.060Z,71.33
2022-12-19T06:39:50.841Z,67.73
2022-12-19T06:42:23.377Z,60.57
2022-12-19T06:44:51.864Z,71.07
2022-12-19T06:47:18.973Z,69.83
2022-12-19T06:49:51.604Z,72.03
2022-12-19T06:52:18.485Z,71.00
2022-12-19T06:54:45.141Z,69.60
2022-12-19T06:57:11.903Z,62.70
2022-12-19T06:59:38.555Z,64.33
2022-12-19T07:02:29.908Z,71.00
2022-12-19T07:05:03.804Z,64.70
2022-12-19T07:07:30.808Z,62.87
2022-12-19T07:09:57.454Z,64.37
2022-12-19T07:12:24.192Z,60.30
2022-12-19T07:14:53.587Z,73.83
2022-12-19T07:17:23.516Z,64.40
2022-12-19T07:19:54.330Z,65.30
2022-12-19T07:22:21.633Z,72.20
2022-12-19T07:24:48.595Z,69.80
2022-12-19T07:27:15.391Z,65.20
2022-12-19T07:29:42.122Z,64.60
2022-12-19T07:32:08.854Z,74.50
2022-12-19T07:34:35.534Z,69.63
2022-12-19T07:37:02.171Z,69.47
2022-12-19T07:39:28.880Z,61.77
2022-12-19T07:41:55.548Z,64.27
2022-12-19T07:44:22.314Z,68.90
2022-12-19T07:46:49.007Z,72.07
2022-12-19T07:49:21.010Z,61.47
2022-12-19T07:51:49.767Z,65.97
2022-12-19T07:54:16.464Z,67.07
2022-12-19T07:56:43.155Z,69.17
2022-12-19T07:59:10.151Z,63.60
2022-12-19T08:01:36.851Z,71.07
2022-12-19T08:04:03.783Z,69.33
2022-12-19T08:06:30.573Z,67.97
2022-12-19T08:08:57.271Z,79.17
2022-12-19T08:11:27.432Z,73.70
2022-12-19T08:13:54.464Z,68.83
2022-12-19T08:16:21.896Z,67.37
2022-12-19T08:18:48.612Z,66.00
2022-12-19T08:21:15.282Z,83.30
2022-12-19T08:23:42.099Z,79.63
2022-12-19T08:26:15.385Z,69.43
2022-12-19T08:28:43.277Z,80.70
2022-12-19T08:31:15.992Z,73.53
2022-12-19T08:33:43.466Z,68.73
2022-12-19T08:36:12.965Z,79.50
2022-12-19T08:38:40.110Z,81.23
2022-12-19T08:41:07.731Z,82.13
2022-12-19T08:43:34.923Z,76.07
2022-12-19T08:46:02.345Z,69.17
2022-12-19T08:48:29.264Z,72.60
2022-12-19T08:50:58.038Z,69.90
2022-12-19T08:53:26.816Z,74.33
2022-12-19T08:56:06.890Z,73.73
2022-12-19T08:58:33.957Z,79.57
2022-12-19T09:01:05.548Z,83.57
2022-12-19T09:03:54.572Z,73.37
2022-12-19T09:06:19.879Z,79.30
2022-12-19T09:08:46.880Z,72.63
2022-12-19T09:11:16.353Z,67.67
2022-12-19T09:13:44.697Z,76.97
2022-12-19T09:16:15.942Z,76.73
2022-12-19T09:18:48.413Z,77.43
2022-12-19T09:21:16.907Z,69.10
2022-12-19T09:23:47.621Z,86.47
2022-12-19T09:26:15.714Z,68.27
2022-12-19T09:28:42.942Z,74.23
2022-12-19T09:31:15.716Z,78.43
2022-12-19T09:33:44.001Z,73.27
2022-12-19T09:36:20.004Z,68.73
2022-12-19T09:38:47.456Z,80.83
2022-12-19T09:41:14.099Z,76.60
2022-12-19T09:44:07.731Z,73.77
2022-12-19T09:47:05.270Z,69.33
2022-12-19T09:49:41.927Z,69.97
2022-12-19T09:52:43.451Z,69.70
2022-12-19T09:55:33.814Z,70.27
2022-12-19T09:58:22.423Z,68.47
2022-12-19T10:01:00.027Z,81.43
2022-12-19T10:03:40.330Z,79.20
2022-12-19T10:07:11.331Z,67.60
2022-12-19T10:11:00.956Z,64.60
2022-12-19T10:12:44.610Z,66.97
2022-12-19T10:15:23.880Z,62.57
2022-12-19T10:18:20.010Z,68.90
2022-12-19T10:20:59.089Z,73.83
2022-12-19T10:23:49.064Z,62.23
2022-12-19T10:26:30.239Z,66.87
2022-12-19T10:29:34.752Z,63.50
2022-12-19T10:32:11.246Z,66.10
2022-12-19T10:34:41.675Z,62.30
2022-12-19T10:37:34.332Z,62.20
2022-12-19T10:40:30.976Z,64.10
2022-12-19T10:43:19.310Z,65.70
2022-12-19T10:46:07.706Z,66.57
2022-12-19T10:48:34.381Z,62.20
2022-12-19T10:51:05.032Z,61.70
2022-12-19T10:53:33.753Z,57.93
2022-12-19T10:56:03.003Z,63.90
2022-12-19T10:58:37.682Z,62.17
2022-12-19T11:01:42.761Z,62.90
2022-12-19T11:04:15.510Z,61.03
2022-12-19T11:06:46.512Z,64.37
2022-12-19T11:09:23.698Z,57.87
2022-12-19T11:16:07.317Z,60.30
2022-12-19T11:21:10.587Z,62.20
2022-12-19T11:29:16.516Z,60.60
2022-12-19T11:29:19.014Z,65.17
2022-12-19T11:29:42.535Z,62.60
2022-12-19T11:30:35.710Z,58.17
2022-12-19T11:32:42.289Z,56.30
2022-12-19T11:35:36.740Z,59.20
2022-12-19T11:38:07.922Z,58.67
2022-12-19T11:40:49.563Z,61.57
2022-12-19T11:43:44.513Z,54.60
2022-12-19T11:46:42.297Z,63.07
2022-12-19T11:49:28.838Z,66.90
2022-12-19T11:53:02.497Z,66.27
2022-12-19T11:55:15.765Z,61.87
2022-12-19T11:57:43.031Z,57.60
2022-12-19T12:00:16.277Z,55.07
2022-12-19T12:02:52.187Z,60.57
2022-12-19T12:05:30.766Z,59.73
2022-12-19T12:10:27.884Z,60.77
2022-12-19T12:18:16.522Z,56.83
2022-12-19T12:24:25.043Z,60.37
2022-12-19T12:31:09.191Z,59.83
2022-12-19T12:31:27.720Z,60.67
2022-12-19T12:31:29.215Z,54.30
2022-12-19T12:31:42.780Z,52.30
2022-12-19T12:31:47.319Z,59.63
2022-12-19T12:35:54.216Z,59.10
2022-12-19T12:37:52.476Z,56.63
2022-12-19T12:38:44.787Z,57.83
2022-12-19T12:41:45.884Z,61.60
2022-12-19T12:44:13.471Z,55.47
2022-12-19T12:46:59.308Z,53.90
2022-12-19T12:49:37.508Z,81.53
2022-12-19T12:52:07.820Z,112.50
2022-12-19T12:54:39.161Z,68.63
2022-12-19T12:57:06.020Z,59.77
2022-12-19T12:59:32.949Z,55.30
2022-12-19T13:02:13.418Z,56.57
2022-12-19T13:04:58.606Z,56.20
2022-12-19T13:07:30.642Z,56.40
2022-12-19T13:10:30.555Z,56.30
2022-12-19T13:13:19.737Z,59.80
2022-12-19T13:15:49.428Z,55.93
2022-12-19T13:18:37.917Z,63.63
2022-12-19T13:21:08.527Z,56.60
2022-12-19T13:23:38.351Z,56.23
2022-12-19T13:26:19.951Z,54.67
2022-12-19T13:28:46.923Z,55.33
2022-12-19T13:31:18.588Z,53.17
2022-12-19T13:34:17.186Z,58.03
2022-12-19T13:39:47.982Z,53.00
2022-12-19T13:40:10.843Z,59.27
2022-12-19T13:43:10.360Z,51.30
2022-12-19T13:45:41.523Z,59.10
2022-12-19T13:48:16.512Z,55.00
2022-12-19T13:50:47.682Z,52.60
2022-12-19T13:53:22.381Z,54.80
2022-12-19T13:55:50.056Z,52.80
2022-12-19T13:58:28.816Z,56.27
2022-12-19T14:01:01.127Z,60.83
2022-12-19T14:03:39.057Z,55.73
2022-12-19T14:06:31.060Z,52.27
2022-12-19T14:11:25.748Z,58.60
2022-12-19T14:12:24.609Z,52.00
2022-12-19T14:15:13.075Z,60.53
2022-12-19T14:17:40.758Z,59.37
2022-12-19T14:22:08.803Z,52.23
2022-12-19T14:23:13.024Z,57.20
2022-12-19T14:28:17.604Z,59.03
2022-12-19T14:28:41.729Z,58.53
2022-12-19T14:31:13.055Z,51.10
2022-12-19T14:34:35.146Z,57.60
2022-12-19T14:36:46.755Z,59.30
2022-12-19T14:39:18.674Z,56.10
2022-12-19T14:42:19.150Z,58.10
2022-12-19T14:52:26.128Z,53.17
2022-12-19T14:53:51.951Z,61.23
2022-12-19T14:54:07.606Z,61.63
2022-12-19T14:54:28.278Z,54.80
2022-12-19T14:59:01.501Z,52.87
2022-12-19T15:01:32.193Z,59.20
2022-12-19T15:04:48.458Z,54.43
2022-12-19T15:07:12.329Z,51.10
2022-12-19T15:11:07.603Z,57.67
2022-12-19T15:14:54.587Z,53.10
2022-12-19T15:16:23.077Z,57.67
2022-12-19T15:18:50.918Z,47.23
2022-12-19T15:21:17.634Z,58.23
2022-12-19T15:23:45.220Z,60.10
2022-12-19T15:26:15.149Z,56.83
2022-12-19T15:28:43.339Z,59.27
2022-12-19T15:31:40.576Z,65.03
2022-12-19T15:34:41.906Z,65.40
2022-12-19T15:37:17.015Z,62.97
2022-12-19T15:39:45.084Z,57.90
2022-12-19T15:42:23.511Z,59.93
2022-12-19T15:44:52.346Z,62.43
2022-12-19T15:47:24.419Z,61.40
2022-12-19T15:49:51.171Z,62.20
2022-12-19T15:52:19.682Z,68.47
2022-12-19T15:54:48.608Z,60.97
2022-12-19T15:57:57.652Z,63.33
2022-12-19T16:00:35.006Z,65.87
2022-12-19T16:05:49.267Z,63.10
2022-12-19T16:08:19.473Z,64.57
2022-12-19T16:11:17.300Z,64.77
2022-12-19T16:13:48.882Z,74.20
2022-12-19T16:16:16.226Z,68.20
2022-12-19T16:18:44.561Z,72.90
2022-12-19T16:21:34.052Z,67.90
2022-12-19T16:24:01.241Z,70.40
2022-12-19T16:26:37.636Z,76.70
2022-12-19T16:29:04.956Z,66.33
2022-12-19T16:31:31.766Z,69.10
2022-12-19T16:33:58.479Z,67.97
2022-12-19T16:36:25.185Z,62.63
2022-12-19T16:38:51.859Z,81.53
2022-12-19T16:41:24.770Z,76.63
2022-12-19T16:43:52.114Z,60.03
2022-12-19T16:46:22.023Z,74.50
2022-12-19T16:48:49.818Z,65.53
2022-12-19T16:51:22.220Z,74.83
2022-12-19T16:53:50.646Z,71.87
2022-12-19T16:56:24.612Z,70.73
2022-12-19T16:58:52.707Z,75.63
2022-12-19T17:01:20.283Z,76.33
2022-12-19T17:03:47.265Z,87.20
2022-12-19T17:06:16.746Z,92.43
2022-12-19T17:08:44.715Z,90.73
2022-12-19T17:11:16.035Z,92.27
2022-12-19T17:13:45.625Z,88.27
2022-12-19T17:16:13.145Z,88.17
2022-12-19T17:18:41.825Z,98.27
2022-12-19T17:21:15.872Z,72.27
2022-12-19T17:23:42.985Z,96.23
2022-12-19T17:26:14.128Z,80.23
2022-12-19T17:28:48.007Z,90.17
2022-12-19T17:31:25.869Z,83.93
2022-12-19T17:33:55.470Z,89.63
2022-12-19T17:36:29.844Z,78.53
2022-12-19T17:39:00.167Z,65.27
2022-12-19T17:41:27.800Z,75.93
2022-12-19T17:43:54.584Z,70.70
2022-12-19T17:46:23.445Z,90.73
2022-12-19T17:48:52.571Z,83.80
2022-12-19T17:51:21.481Z,86.80
2022-12-19T17:53:49.284Z,79.90
2022-12-19T17:56:18.274Z,71.30
2022-12-19T17:58:45.166Z,88.77
2022-12-19T18:01:20.134Z,77.57
2022-12-19T18:03:47.843Z,69.63
2022-12-19T18:06:15.895Z,73.97
2022-12-19T18:08:42.774Z,69.03
2022-12-19T18:11:27.475Z,74.90
2022-12-19T18:13:54.631Z,62.93
2022-12-19T18:16:27.224Z,58.70
2022-12-19T18:18:54.397Z,64.77
2022-12-19T18:21:25.808Z,65.23
2022-12-19T18:23:52.782Z,56.40
2022-12-19T18:26:19.634Z,59.57
2022-12-19T18:28:46.371Z,57.47
2022-12-19T18:31:25.745Z,60.43
2022-12-19T18:33:54.447Z,54.77
2022-12-19T18:36:24.008Z,51.40
2022-12-19T18:38:51.789Z,42.77
2022-12-19T18:41:19.803Z,50.10
2022-12-19T18:43:47.069Z,48.90
2022-12-19T18:46:16.163Z,46.93
2022-12-19T18:48:44.888Z,52.00
2022-12-19T18:51:19.204Z,53.57
2022-12-19T18:53:47.442Z,56.87
2022-12-19T18:56:14.899Z,52.20
2022-12-19T18:58:42.220Z,57.47
2022-12-19T19:01:18.695Z,59.67
2022-12-19T19:03:53.513Z,53.97
2022-12-19T19:06:23.462Z,54.60
2022-12-19T19:08:51.522Z,49.63
2022-12-19T19:11:20.307Z,51.27
2022-12-19T19:13:47.100Z,54.77
2022-12-19T19:16:18.286Z,53.20
2022-12-19T19:18:46.596Z,51.00
2022-12-19T19:21:14.975Z,44.80
2022-12-19T19:23:51.022Z,45.93
2022-12-19T19:26:17.848Z,46.97
2022-12-19T19:28:50.293Z,53.67
2022-12-19T19:31:21.281Z,48.40
2022-12-19T19:33:52.669Z,52.57
2022-12-19T19:36:23.089Z,53.40
2022-12-19T19:38:54.766Z,54.93
2022-12-19T19:41:22.833Z,55.10
2022-12-19T19:43:49.794Z,55.17
2022-12-19T19:46:16.760Z,50.03
2022-12-19T19:48:43.619Z,53.53
2022-12-19T19:51:11.990Z,54.90
2022-12-19T19:53:38.825Z,51.77
2022-12-19T19:56:05.913Z,59.70
2022-12-19T19:58:32.719Z,49.10
2022-12-19T20:00:59.649Z,48.97
2022-12-19T20:03:26.965Z,50.33
2022-12-19T20:06:01.026Z,49.73
2022-12-19T20:08:30.972Z,49.33
2022-12-19T20:11:00.661Z,44.70
2022-12-19T20:13:30.307Z,53.13
2022-12-19T20:16:06.567Z,49.23
2022-12-19T20:18:34.117Z,56.23
2022-12-19T20:21:01.178Z,49.37
2022-12-19T20:23:28.199Z,44.00
2022-12-19T20:25:59.793Z,40.97
2022-12-19T20:28:26.460Z,42.20
2022-12-19T20:30:53.255Z,47.63
2022-12-19T20:33:20.006Z,45.93
2022-12-19T20:35:46.834Z,50.10
2022-12-19T20:38:13.570Z,50.30
2022-12-19T20:40:40.324Z,57.13
2022-12-19T20:43:07.128Z,51.03
2022-12-19T20:45:33.852Z,51.77
2022-12-19T20:48:00.596Z,59.20
2022-12-19T20:50:27.389Z,58.57
2022-12-19T20:52:54.280Z,60.00
2022-12-19T20:55:20.976Z,52.83
2022-12-19T20:57:47.855Z,50.30
2022-12-19T21:00:15.468Z,52.77
2022-12-19T21:03:24.958Z,55.47
2022-12-19T21:05:28.911Z,57.20
2022-12-19T21:07:55.671Z,53.13
2022-12-19T21:10:22.435Z,55.67
2022-12-19T21:12:49.135Z,48.03
2022-12-19T21:15:16.073Z,51.80
2022-12-19T21:17:42.826Z,56.00
2022-12-19T21:20:10.250Z,53.83
2022-12-19T21:22:36.885Z,50.37
2022-12-19T21:25:04.434Z,51.23
2022-12-19T21:27:31.169Z,53.83
2022-12-19T21:29:57.973Z,55.20
2022-12-19T21:32:24.703Z,53.97
2022-12-19T21:34:53.612Z,54.83
2022-12-19T21:37:20.291Z,52.67
2022-12-19T21:39:46.986Z,63.13
2022-12-19T21:42:13.680Z,58.90
2022-12-19T21:44:44.213Z,54.43
2022-12-19T21:47:10.993Z,51.40
2022-12-19T21:49:37.841Z,55.40
2022-12-19T21:52:04.902Z,64.27
2022-12-19T21:54:31.577Z,47.90
2022-12-19T21:56:58.693Z,53.17
2022-12-19T21:59:25.466Z,51.73
2022-12-19T22:01:52.422Z,51.87
2022-12-19T22:04:21.982Z,48.90
2022-12-19T22:06:50.101Z,47.43
2022-12-19T22:09:19.443Z,42.90
2022-12-19T22:11:46.443Z,45.10
2022-12-19T22:14:15.444Z,46.10
2022-12-19T22:16:42.381Z,43.63
2022-12-19T22:19:16.996Z,47.27
2022-12-19T22:21:45.581Z,54.77
2022-12-19T22:24:14.162Z,51.23
2022-12-19T22:26:41.015Z,49.63
2022-12-19T22:29:10.114Z,50.73
2022-12-19T22:31:38.273Z,47.90
2022-12-19T22:34:08.017Z,48.77
2022-12-19T22:36:36.643Z,49.20
2022-12-19T22:39:06.399Z,51.33
2022-12-19T22:41:34.655Z,45.73
2022-12-19T22:44:01.990Z,45.57
2022-12-19T22:46:34.416Z,46.60
2022-12-19T22:49:03.545Z,43.90
2022-12-19T22:51:32.191Z,47.03
2022-12-19T22:53:59.763Z,44.37
2022-12-19T22:56:28.788Z,46.07
2022-12-19T22:58:58.862Z,48.93
2022-12-19T23:01:35.723Z,49.93
2022-12-19T23:04:04.039Z,55.17
2022-12-19T23:06:33.535Z,51.87
2022-12-19T23:09:00.537Z,51.03
2022-12-19T23:11:33.895Z,51.20
2022-12-19T23:14:02.159Z,47.03
2022-12-19T23:16:29.127Z,47.07
2022-12-19T23:18:55.937Z,49.43
2022-12-19T23:21:24.849Z,50.47
2022-12-19T23:23:53.216Z,50.03
2022-12-19T23:26:26.914Z,53.43
2022-12-19T23:29:05.537Z,56.00
2022-12-19T23:31:33.815Z,56.23
2022-12-19T23:34:01.463Z,60.57
2022-12-19T23:37:08.217Z,63.77
2022-12-19T23:39:15.317Z,52.33
2022-12-19T23:41:42.361Z,56.63
2022-12-19T23:44:09.794Z,58.90
2022-12-19T23:46:37.301Z,60.20
2022-12-19T23:49:04.467Z,63.90
2022-12-19T23:51:31.243Z,61.80
2022-12-19T23:53:58.041Z,56.57
2022-12-19T23:56:27.224Z,68.13
2022-12-19T23:58:54.386Z,62.23
